PVL902 CYXU-CYKF
Flight info
| Callsign | PVL902 |
|---|---|
| Flight time | 0h 12m |
| Altitude | 9000 |
| Route | TETOS |
| Aircraft | DH8D/M-SDE2E3FGRY/H |
Departure
| Time | 2026-04-25 01:55 |
|---|---|
| Airport | London International Airport (CYXU) |
Arrival
| Time | 2026-04-25 02:07 |
|---|---|
| Airport | Region of Waterloo International Airport (CYKF) |
| Time | Latitude | Longitude | Altitude | Speed | Heading |
|---|---|---|---|---|---|
| 2026-04-25 01:39 | 43.02955 | -81.14918 | 906 ft | 0 kts | 182° |
| 2026-04-25 01:46 | 43.02960 | -81.14918 | 906 ft | 4 kts | 183° |
| 2026-04-25 01:46 | 43.02967 | -81.14917 | 906 ft | 0 kts | 188° |
| 2026-04-25 01:49 | 43.02986 | -81.14912 | 906 ft | 6 kts | 213° |
| 2026-04-25 01:49 | 43.03000 | -81.14870 | 906 ft | 1 kts | 312° |
| 2026-04-25 01:50 | 43.03015 | -81.14874 | 906 ft | 3 kts | 346° |
| 2026-04-25 01:50 | 43.03018 | -81.14876 | 906 ft | 0 kts | 339° |
| 2026-04-25 01:51 | 43.03025 | -81.14880 | 906 ft | 2 kts | 331° |
| 2026-04-25 01:51 | 43.03033 | -81.14887 | 906 ft | 0 kts | 326° |
| 2026-04-25 01:52 | 43.03038 | -81.14893 | 906 ft | 8 kts | 323° |
| 2026-04-25 01:52 | 43.03176 | -81.15054 | 908 ft | 34 kts | 317° |
| 2026-04-25 01:52 | 43.03342 | -81.15256 | 910 ft | 29 kts | 317° |
| 2026-04-25 01:52 | 43.03488 | -81.15429 | 913 ft | 25 kts | 316° |
| 2026-04-25 01:53 | 43.03609 | -81.15578 | 915 ft | 21 kts | 321° |
| 2026-04-25 01:53 | 43.03695 | -81.15691 | 916 ft | 13 kts | 294° |
| 2026-04-25 01:53 | 43.03675 | -81.15906 | 913 ft | 29 kts | 260° |
| 2026-04-25 01:53 | 43.03643 | -81.16143 | 913 ft | 14 kts | 263° |
| 2026-04-25 01:54 | 43.03635 | -81.16203 | 913 ft | 13 kts | 261° |
| 2026-04-25 01:54 | 43.03700 | -81.16273 | 913 ft | 12 kts | 345° |
| 2026-04-25 01:54 | 43.03716 | -81.16280 | 913 ft | 0 kts | 347° |
| 2026-04-25 01:54 | 43.03720 | -81.16280 | 913 ft | 5 kts | 346° |
| 2026-04-25 01:55 | 43.03815 | -81.16254 | 912 ft | 11 kts | 63° |
| 2026-04-25 01:55 | 43.03827 | -81.16202 | 913 ft | 13 kts | 76° |
| 2026-04-25 01:55 | 43.03917 | -81.15574 | 918 ft | 120 kts | 79° |
| 2026-04-25 01:55 | 43.04091 | -81.14316 | 1546 ft | 145 kts | 81° |
| 2026-04-25 01:56 | 43.04312 | -81.12927 | 2424 ft | 161 kts | 80° |
| 2026-04-25 01:56 | 43.04576 | -81.11406 | 3250 ft | 180 kts | 80° |
| 2026-04-25 01:56 | 43.04873 | -81.09564 | 3715 ft | 218 kts | 80° |
| 2026-04-25 01:56 | 43.05220 | -81.07379 | 4126 ft | 249 kts | 79° |
| 2026-04-25 01:57 | 43.05902 | -81.02911 | 6476 ft | 240 kts | 79° |
| 2026-04-25 01:57 | 43.06233 | -81.00610 | 7160 ft | 259 kts | 80° |
| 2026-04-25 01:57 | 43.06877 | -80.98221 | 7791 ft | 277 kts | 59° |
| 2026-04-25 01:58 | 43.08139 | -80.96282 | 8750 ft | 277 kts | 44° |
| 2026-04-25 01:58 | 43.09483 | -80.94429 | 9525 ft | 285 kts | 45° |
| 2026-04-25 01:58 | 43.10988 | -80.92346 | 8672 ft | 338 kts | 45° |
| 2026-04-25 01:58 | 43.12620 | -80.90121 | 8360 ft | 316 kts | 44° |
| 2026-04-25 01:59 | 43.14154 | -80.88081 | 7765 ft | 300 kts | 43° |
| 2026-04-25 01:59 | 43.15592 | -80.86175 | 7520 ft | 276 kts | 43° |
| 2026-04-25 01:59 | 43.16918 | -80.84410 | 7245 ft | 258 kts | 43° |
| 2026-04-25 01:59 | 43.18171 | -80.82731 | 6946 ft | 244 kts | 43° |
| 2026-04-25 02:00 | 43.19344 | -80.81155 | 6656 ft | 232 kts | 43° |
| 2026-04-25 02:00 | 43.20471 | -80.79639 | 6361 ft | 221 kts | 43° |
| 2026-04-25 02:00 | 43.21533 | -80.78208 | 6119 ft | 207 kts | 43° |
| 2026-04-25 02:00 | 43.22555 | -80.76827 | 6032 ft | 207 kts | 44° |
| 2026-04-25 02:01 | 43.23589 | -80.75420 | 6014 ft | 218 kts | 44° |
| 2026-04-25 02:01 | 43.24748 | -80.73923 | 6008 ft | 238 kts | 40° |
| 2026-04-25 02:01 | 43.26054 | -80.72398 | 5863 ft | 261 kts | 40° |
| 2026-04-25 02:01 | 43.27471 | -80.70768 | 5592 ft | 265 kts | 40° |
| 2026-04-25 02:02 | 43.28884 | -80.69149 | 5292 ft | 266 kts | 40° |
| 2026-04-25 02:02 | 43.30296 | -80.67526 | 4919 ft | 268 kts | 41° |
| 2026-04-25 02:02 | 43.31718 | -80.65894 | 4511 ft | 262 kts | 41° |
| 2026-04-25 02:02 | 43.33080 | -80.64341 | 4086 ft | 250 kts | 42° |
| 2026-04-25 02:03 | 43.34394 | -80.62839 | 3659 ft | 239 kts | 43° |
| 2026-04-25 02:03 | 43.35651 | -80.61402 | 3245 ft | 230 kts | 43° |
| 2026-04-25 02:03 | 43.36829 | -80.60054 | 3063 ft | 212 kts | 43° |
| 2026-04-25 02:03 | 43.37900 | -80.58834 | 3002 ft | 190 kts | 44° |
| 2026-04-25 02:04 | 43.38851 | -80.57753 | 2960 ft | 165 kts | 44° |
| 2026-04-25 02:04 | 43.39655 | -80.56806 | 2922 ft | 138 kts | 53° |
| 2026-04-25 02:04 | 43.40153 | -80.55672 | 2989 ft | 144 kts | 70° |
| 2026-04-25 02:04 | 43.40578 | -80.54357 | 2993 ft | 157 kts | 70° |
| 2026-04-25 02:05 | 43.41046 | -80.52930 | 2991 ft | 168 kts | 70° |
| 2026-04-25 02:05 | 43.41540 | -80.51439 | 2984 ft | 174 kts | 69° |
| 2026-04-25 02:05 | 43.42055 | -80.49904 | 2986 ft | 179 kts | 69° |
| 2026-04-25 02:05 | 43.42581 | -80.48338 | 2901 ft | 186 kts | 69° |
| 2026-04-25 02:06 | 43.43141 | -80.46692 | 2796 ft | 191 kts | 67° |
| 2026-04-25 02:06 | 43.43744 | -80.45068 | 2689 ft | 195 kts | 65° |
| 2026-04-25 02:06 | 43.44321 | -80.43425 | 2336 ft | 184 kts | 67° |
| 2026-04-25 02:06 | 43.44846 | -80.41849 | 1809 ft | 180 kts | 67° |
| 2026-04-25 02:07 | 43.45334 | -80.40321 | 1349 ft | 174 kts | 67° |
| 2026-04-25 02:07 | 43.45829 | -80.38886 | 1092 ft | 158 kts | 65° |
| 2026-04-25 02:07 | 43.46199 | -80.37775 | 1043 ft | 57 kts | 67° |
| 2026-04-25 02:07 | 43.46201 | -80.37677 | 1045 ft | 2 kts | 202° |
| 2026-04-25 02:08 | 43.46177 | -80.37686 | 1044 ft | 9 kts | 180° |
| 2026-04-25 02:08 | 43.46148 | -80.37680 | 1044 ft | 1 kts | 175° |
| 2026-04-25 02:08 | 43.46086 | -80.37710 | 1042 ft | 3 kts | 197° |
| 2026-04-25 02:08 | 43.46085 | -80.37710 | 1042 ft | 0 kts | 197° |